Time;durP1;ratioP1;P1;durP2;ratioP2;P2;SDS_P1;SDS_P2;PMS_P1;PMS_P2;Temp;Humidity;BMP_temperature;BMP_pressure;BME280_temperature;BME280_humidity;BME280_pressure;Samples;Min_cycle;Max_cycle;Signal;HPM_P1;HPM_P2
2023/09/25 00:00:36;;;;;;;10.30;6.03;;;;;;;12.23;100.00;100580.72;5179123;27;20042;-63
2023/09/25 00:03:03;;;;;;;13.50;6.28;;;;;;;12.21;100.00;100566.50;5179616;27;20057;-63
2023/09/25 00:05:30;;;;;;;6.32;5.25;;;;;;;12.20;100.00;100572.38;5179395;27;20050;-61
2023/09/25 00:07:57;;;;;;;10.35;6.03;;;;;;;12.17;100.00;100570.28;5179333;27;20054;-62
2023/09/25 00:10:25;;;;;;;8.80;5.80;;;;;;;12.20;100.00;100564.91;5179326;27;20350;-63
2023/09/25 00:12:51;;;;;;;8.55;5.72;;;;;;;12.19;100.00;100573.50;5179057;27;20046;-60
2023/09/25 00:15:17;;;;;;;8.35;5.95;;;;;;;12.17;100.00;100576.59;5179354;27;20088;-62
2023/09/25 00:17:43;;;;;;;6.30;5.57;;;;;;;12.13;100.00;100575.66;5179068;27;20155;-64
2023/09/25 00:20:11;;;;;;;8.13;5.78;;;;;;;12.18;100.00;100569.94;5179243;27;20089;-62
2023/09/25 00:22:37;;;;;;;11.23;6.45;;;;;;;12.17;100.00;100575.78;5179005;27;20312;-60
2023/09/25 00:25:04;;;;;;;7.93;5.72;;;;;;;12.19;100.00;100570.75;5179245;27;20133;-62
2023/09/25 00:27:31;;;;;;;7.93;6.18;;;;;;;12.17;100.00;100578.53;5179237;27;20064;-62
2023/09/25 00:29:57;;;;;;;10.15;6.53;;;;;;;12.07;100.00;100579.78;5179219;27;20054;-62
2023/09/25 00:32:23;;;;;;;12.20;6.68;;;;;;;12.15;100.00;100584.38;5178762;27;20137;-62
2023/09/25 00:34:49;;;;;;;8.18;6.20;;;;;;;12.12;100.00;100571.28;5179046;27;20050;-61
2023/09/25 00:37:15;;;;;;;9.95;5.82;;;;;;;12.09;100.00;100574.72;5179019;27;20141;-60
2023/09/25 00:39:42;;;;;;;6.45;5.32;;;;;;;11.97;100.00;100571.97;5178509;27;20046;-60
2023/09/25 00:42:10;;;;;;;9.02;6.10;;;;;;;12.10;100.00;100576.34;5178800;27;20426;-64
2023/09/25 00:44:35;;;;;;;6.22;5.63;;;;;;;11.94;100.00;100580.88;5178718;27;20054;-61
2023/09/25 00:47:01;;;;;;;7.18;5.82;;;;;;;11.99;100.00;100575.97;5178677;27;20362;-60
2023/09/25 00:49:29;;;;;;;6.90;5.72;;;;;;;12.10;100.00;100581.06;5178582;27;20061;-61
2023/09/25 00:51:55;;;;;;;12.18;6.03;;;;;;;12.07;100.00;100587.22;5178957;27;20367;-63
2023/09/25 00:54:22;;;;;;;16.05;7.03;;;;;;;12.11;100.00;100583.44;5178533;27;20084;-61
2023/09/25 00:56:48;;;;;;;10.30;6.57;;;;;;;12.03;100.00;100581.59;5178925;27;20050;-62
2023/09/25 00:59:15;;;;;;;14.52;7.28;;;;;;;12.09;100.00;100580.22;5178294;27;20155;-62
2023/09/25 01:01:42;;;;;;;5.75;5.15;;;;;;;12.07;100.00;100588.03;5178359;27;20397;-62
2023/09/25 01:04:09;;;;;;;8.70;6.43;;;;;;;12.01;100.00;100600.38;5178686;27;20149;-61
2023/09/25 01:06:35;;;;;;;6.93;5.70;;;;;;;11.96;100.00;100615.16;5178235;27;20456;-60
2023/09/25 01:09:01;;;;;;;10.20;6.55;;;;;;;11.94;100.00;100598.19;5178397;27;20403;-62
2023/09/25 01:11:28;;;;;;;7.68;6.45;;;;;;;11.90;100.00;100605.50;5178280;27;20050;-64
2023/09/25 01:13:54;;;;;;;7.80;5.70;;;;;;;11.87;100.00;100608.91;5178449;27;20046;-61
2023/09/25 01:16:22;;;;;;;7.72;5.78;;;;;;;11.80;100.00;100605.91;5178177;27;20058;-61
2023/09/25 01:18:48;;;;;;;6.10;5.50;;;;;;;11.77;100.00;100617.56;5178637;27;20149;-60
2023/09/25 01:21:14;;;;;;;8.05;5.78;;;;;;;11.76;100.00;100610.44;5178145;27;20050;-61
2023/09/25 01:23:40;;;;;;;10.52;6.60;;;;;;;11.70;100.00;100609.84;5178594;27;20046;-61
2023/09/25 01:26:06;;;;;;;9.80;6.43;;;;;;;11.64;100.00;100608.47;5178177;27;20061;-60
2023/09/25 01:28:32;;;;;;;7.22;6.43;;;;;;;11.67;100.00;100610.53;5178576;27;20047;-62
2023/09/25 01:30:58;;;;;;;7.28;5.85;;;;;;;11.52;100.00;100613.88;5181927;27;20042;-63
2023/09/25 01:33:25;;;;;;;6.40;5.72;;;;;;;11.52;100.00;100602.91;5181840;27;20050;-60
2023/09/25 01:35:51;;;;;;;8.57;5.97;;;;;;;11.32;100.00;100601.75;5181943;27;20074;-62
2023/09/25 01:38:17;;;;;;;8.02;6.63;;;;;;;11.48;100.00;100589.03;5181724;27;20050;-62
2023/09/25 01:40:43;;;;;;;10.90;7.25;;;;;;;11.39;100.00;100590.25;5181472;27;20050;-61
2023/09/25 01:43:09;;;;;;;10.48;7.40;;;;;;;11.38;100.00;100580.41;5181452;27;20046;-61
2023/09/25 01:45:35;;;;;;;12.73;7.32;;;;;;;11.39;100.00;100582.81;5181801;27;20137;-61
2023/09/25 01:48:01;;;;;;;10.07;7.60;;;;;;;11.24;100.00;100586.19;5181302;27;20399;-61
2023/09/25 01:50:28;;;;;;;8.18;7.10;;;;;;;11.20;100.00;100564.09;5181786;27;20132;-64
2023/09/25 01:52:56;;;;;;;9.15;7.13;;;;;;;11.32;100.00;100558.63;5181296;27;20136;-61
2023/09/25 01:55:22;;;;;;;12.65;8.10;;;;;;;11.40;100.00;100528.72;5181693;27;20046;-63
2023/09/25 01:57:49;;;;;;;11.43;7.25;;;;;;;11.32;100.00;100531.19;5181167;27;20046;-62
2023/09/25 02:00:18;;;;;;;10.90;6.70;;;;;;;11.37;100.00;100526.66;5181270;27;20050;-63
2023/09/25 02:02:44;;;;;;;8.63;7.15;;;;;;;11.35;100.00;100523.41;5181189;27;20050;-60
2023/09/25 02:05:10;;;;;;;10.77;7.35;;;;;;;11.20;100.00;100514.66;5180950;27;20467;-63
2023/09/25 02:07:36;;;;;;;8.40;7.18;;;;;;;11.39;100.00;100503.19;5181379;27;20050;-63
2023/09/25 02:10:03;;;;;;;7.53;6.40;;;;;;;11.45;100.00;100512.03;5181057;27;20078;-60
2023/09/25 02:12:29;;;;;;;7.63;5.80;;;;;;;11.36;100.00;100520.31;5181110;27;20133;-63
2023/09/25 02:14:59;;;;;;;7.93;6.30;;;;;;;11.43;100.00;100512.38;5181067;27;20046;-64
2023/09/25 02:17:27;;;;;;;10.70;5.75;;;;;;;11.36;100.00;100522.28;5181324;27;20049;-61
2023/09/25 02:19:53;;;;;;;11.02;6.07;;;;;;;11.46;100.00;100517.19;5180774;27;20494;-62
2023/09/25 02:22:20;;;;;;;5.68;5.15;;;;;;;11.35;100.00;100517.94;5181420;27;20288;-60
2023/09/25 02:24:46;;;;;;;5.88;4.90;;;;;;;11.44;100.00;100515.91;5180746;27;20426;-64
2023/09/25 02:27:12;;;;;;;6.47;5.70;;;;;;;11.30;100.00;100516.22;5180988;27;20054;-63
2023/09/25 02:29:37;;;;;;;7.15;5.22;;;;;;;11.32;100.00;100524.88;5181006;27;20142;-62
2023/09/25 02:32:04;;;;;;;8.43;5.25;;;;;;;11.36;100.00;100534.06;5180917;27;20046;-61
2023/09/25 02:34:30;;;;;;;5.82;4.63;;;;;;;11.24;100.00;100529.31;5180943;27;20133;-61
2023/09/25 02:36:56;;;;;;;8.07;5.35;;;;;;;11.39;100.00;100524.34;5180530;27;20442;-61
2023/09/25 02:39:22;;;;;;;6.70;4.57;;;;;;;11.25;100.00;100524.63;5180862;27;20081;-60
2023/09/25 02:41:48;;;;;;;9.25;5.43;;;;;;;11.40;100.00;100528.72;5179430;27;20042;-63
2023/09/25 02:44:14;;;;;;;11.15;4.90;;;;;;;11.32;100.00;100530.38;5180848;27;20105;-64
2023/09/25 02:46:40;;;;;;;6.57;4.88;;;;;;;11.35;100.00;100528.91;5180431;27;20171;-63
2023/09/25 02:49:06;;;;;;;6.35;4.97;;;;;;;11.18;100.00;100538.09;5180819;27;20096;-62
2023/09/25 02:51:32;;;;;;;6.63;4.22;;;;;;;11.16;100.00;100521.97;5180247;27;20494;-62
2023/09/25 02:53:58;;;;;;;5.22;4.45;;;;;;;11.17;100.00;100526.31;5180720;27;20053;-62
2023/09/25 02:56:24;;;;;;;5.80;4.00;;;;;;;11.13;100.00;100519.91;5180483;27;20054;-62
2023/09/25 02:58:50;;;;;;;12.77;4.78;;;;;;;11.24;100.00;100507.38;5180117;27;20053;-61
2023/09/25 03:01:16;;;;;;;7.38;4.60;;;;;;;11.21;100.00;100519.00;5180423;27;20155;-60
2023/09/25 03:03:43;;;;;;;8.80;4.88;;;;;;;11.25;100.00;100519.13;5180110;27;20091;-60
2023/09/25 03:06:09;;;;;;;7.03;4.95;;;;;;;11.21;100.00;100520.97;5180367;27;20042;-62
2023/09/25 03:08:35;;;;;;;5.40;4.25;;;;;;;11.19;100.00;100521.28;5180166;27;20136;-63
2023/09/25 03:11:01;;;;;;;7.40;4.47;;;;;;;11.35;100.00;100529.72;5180370;27;20098;-63
2023/09/25 03:13:27;;;;;;;7.00;4.53;;;;;;;11.18;100.00;100541.63;5179942;27;20081;-62
2023/09/25 03:15:54;;;;;;;5.75;4.13;;;;;;;11.35;100.00;100534.41;5180400;27;20077;-60
2023/09/25 03:18:20;;;;;;;4.78;3.95;;;;;;;11.24;100.00;100537.56;5179888;27;20062;-62
2023/09/25 03:20:46;;;;;;;4.43;4.03;;;;;;;11.31;100.00;100546.06;5180265;27;20141;-63
2023/09/25 03:23:12;;;;;;;5.10;4.40;;;;;;;11.27;100.00;100567.09;5179766;27;20133;-63
2023/09/25 03:25:40;;;;;;;9.88;4.70;;;;;;;11.37;100.00;100567.84;5179981;27;20133;-63
2023/09/25 03:28:06;;;;;;;6.38;4.07;;;;;;;11.37;100.00;100578.81;5179965;27;20141;-64
2023/09/25 03:30:32;;;;;;;7.95;4.25;;;;;;;11.23;100.00;100590.88;5179928;27;20140;-63
2023/09/25 03:32:58;;;;;;;4.03;3.63;;;;;;;11.25;100.00;100596.81;5179823;27;20093;-62
2023/09/25 03:35:24;;;;;;;5.70;3.95;;;;;;;11.28;100.00;100609.06;5179786;27;20077;-62
2023/09/25 03:37:50;;;;;;;5.95;4.30;;;;;;;11.29;100.00;100610.66;5179946;27;20140;-62
2023/09/25 03:40:16;;;;;;;4.93;3.90;;;;;;;11.25;100.00;100616.03;5179550;27;20074;-63
2023/09/25 03:42:42;;;;;;;4.38;3.58;;;;;;;11.10;100.00;100610.34;5179744;27;20556;-63
2023/09/25 03:45:09;;;;;;;6.90;4.18;;;;;;;11.03;100.00;100619.91;5179561;27;20079;-64
2023/09/25 03:47:35;;;;;;;7.63;3.92;;;;;;;10.97;100.00;100610.25;5179778;27;20133;-61
2023/09/25 03:50:01;;;;;;;7.57;4.40;;;;;;;11.04;100.00;100598.75;5179406;27;20046;-60
2023/09/25 03:52:28;;;;;;;8.07;3.72;;;;;;;11.16;100.00;100607.06;5179455;27;20154;-61
2023/09/25 03:54:54;;;;;;;5.28;3.70;;;;;;;11.03;100.00;100603.44;5179240;27;20046;-63
2023/09/25 03:57:21;;;;;;;4.97;4.00;;;;;;;11.20;100.00;100604.47;5179434;27;20145;-63
2023/09/25 03:59:47;;;;;;;8.38;4.50;;;;;;;11.18;100.00;100621.25;5179485;27;20052;-63
2023/09/25 04:02:12;;;;;;;7.25;4.28;;;;;;;11.18;100.00;100628.69;5179123;27;20051;-64
2023/09/25 04:04:38;;;;;;;7.50;3.90;;;;;;;11.23;100.00;100634.78;5179577;27;20053;-62
2023/09/25 04:07:04;;;;;;;4.45;3.97;;;;;;;11.25;100.00;100650.91;5179262;27;20054;-61
2023/09/25 04:09:30;;;;;;;7.80;4.72;;;;;;;11.20;100.00;100667.59;5179368;27;20058;-60
2023/09/25 04:11:57;;;;;;;4.72;4.03;;;;;;;11.16;100.00;100678.44;5179189;27;20106;-61
2023/09/25 04:14:27;;;;;;;23.50;6.57;;;;;;;11.23;100.00;100681.47;5179534;27;20046;-62
2023/09/25 04:16:54;;;;;;;10.00;4.70;;;;;;;11.26;100.00;100696.44;5179045;27;20050;-61
2023/09/25 04:19:20;;;;;;;12.05;4.80;;;;;;;11.26;100.00;100711.00;5179414;27;20054;-64
2023/09/25 04:21:47;;;;;;;14.25;5.18;;;;;;;11.15;100.00;100720.72;5178825;27;20106;-63
2023/09/25 04:24:13;;;;;;;15.30;5.30;;;;;;;11.24;100.00;100726.19;5178806;27;20042;-60
2023/09/25 04:26:39;;;;;;;6.95;4.20;;;;;;;11.19;100.00;100735.38;5178977;27;20050;-60
2023/09/25 04:29:05;;;;;;;7.88;3.50;;;;;;;11.16;100.00;100748.97;5178775;27;20353;-64
2023/09/25 04:31:32;;;;;;;4.13;3.67;;;;;;;11.14;100.00;100763.03;5178823;27;20102;-65
2023/09/25 04:33:58;;;;;;;8.90;3.50;;;;;;;11.11;100.00;100757.41;5178933;27;20046;-64
2023/09/25 04:36:24;;;;;;;17.20;5.70;;;;;;;11.26;100.00;100754.91;5178921;27;20141;-62
2023/09/25 04:38:50;;;;;;;14.60;4.10;;;;;;;11.33;100.00;100757.16;5178449;27;20190;-63
2023/09/25 04:41:16;;;;;;;13.77;4.22;;;;;;;11.37;100.00;100757.28;5179085;27;20136;-64
2023/09/25 04:43:42;;;;;;;4.15;3.80;;;;;;;11.32;100.00;100774.72;5178613;27;20050;-65
2023/09/25 04:46:10;;;;;;;4.80;3.60;;;;;;;11.77;100.00;100782.41;5178762;27;20102;-62
2023/09/25 04:48:37;;;;;;;5.85;3.03;;;;;;;12.40;100.00;100815.44;5178569;27;20141;-61
2023/09/25 04:51:03;;;;;;;4.95;2.90;;;;;;;12.68;100.00;100890.75;5178948;27;20146;-63
2023/09/25 04:53:29;;;;;;;3.80;2.65;;;;;;;13.38;100.00;100942.44;5178637;27;20051;-63
2023/09/25 04:55:55;;;;;;;3.17;2.65;;;;;;;13.48;100.00;101002.63;5178334;27;20054;-65
2023/09/25 04:58:21;;;;;;;3.72;2.22;;;;;;;14.08;100.00;101027.91;5178600;27;20114;-63
2023/09/25 05:00:48;;;;;;;2.20;2.00;;;;;;;14.25;100.00;100977.22;5178436;27;20086;-67
2023/09/25 05:03:14;;;;;;;7.35;2.25;;;;;;;14.90;100.00;100897.19;5178424;27;20492;-59
2023/09/25 05:05:40;;;;;;;3.35;2.10;;;;;;;15.27;100.00;100749.41;5181531;27;20093;-55
2023/09/25 05:08:06;;;;;;;4.32;2.03;;;;;;;15.28;100.00;100444.31;5182312;27;20129;-61
2023/09/25 05:10:32;;;;;;;4.78;1.98;;;;;;;15.72;100.00;100280.06;5181834;27;20145;-60
2023/09/25 05:12:58;;;;;;;2.90;2.22;;;;;;;16.15;100.00;100064.88;5182123;27;20137;-59
2023/09/25 05:15:25;;;;;;;3.53;2.90;;;;;;;16.39;100.00;99887.22;5181536;27;20050;-63
2023/09/25 05:17:51;;;;;;;5.72;3.60;;;;;;;16.82;100.00;99754.53;5182339;27;20319;-64
2023/09/25 05:20:18;;;;;;;8.93;3.50;;;;;;;16.81;100.00;99694.00;5181409;27;20046;-63
2023/09/25 05:22:47;;;;;;;9.27;3.90;;;;;;;17.15;100.00;99661.16;5181678;27;20046;-65
2023/09/25 05:25:14;;;;;;;5.85;2.83;;;;;;;17.48;100.00;99623.09;5181842;27;20050;-61
2023/09/25 05:27:41;;;;;;;4.72;2.92;;;;;;;17.47;100.00;99616.78;5181646;27;20426;-63
2023/09/25 05:30:09;;;;;;;9.50;3.13;;;;;;;17.61;100.00;99622.25;5181608;27;20148;-65
2023/09/25 05:32:35;;;;;;;7.00;3.45;;;;;;;17.85;100.00;99628.16;5181362;27;20093;-63
2023/09/25 05:35:02;;;;;;;3.22;2.58;;;;;;;18.35;100.00;99659.19;5181753;27;20046;-61
2023/09/25 05:37:28;;;;;;;3.30;2.20;;;;;;;18.20;100.00;99699.34;5181290;27;20548;-59
2023/09/25 05:39:54;;;;;;;6.32;2.28;;;;;;;18.21;100.00;99700.13;5181405;27;20049;-60
2023/09/25 05:42:20;;;;;;;4.05;2.80;;;;;;;18.83;100.00;99701.38;5181084;27;20305;-61
2023/09/25 05:44:46;;;;;;;3.42;1.90;;;;;;;18.61;100.00;99736.81;5181542;27;20075;-61
2023/09/25 05:47:12;;;;;;;2.50;2.08;;;;;;;18.86;100.00;99775.56;5181034;27;20126;-64
2023/09/25 05:49:38;;;;;;;4.75;1.88;;;;;;;19.02;100.00;99804.44;5181080;27;20547;-60
2023/09/25 05:52:04;;;;;;;2.58;1.95;;;;;;;19.30;100.00;99838.81;5181106;27;20050;-60
2023/09/25 05:54:30;;;;;;;4.88;2.15;;;;;;;19.32;100.00;99841.16;5181077;27;20479;-62
2023/09/25 05:56:57;;;;;;;3.33;1.90;;;;;;;19.62;100.00;99883.06;5181124;27;20141;-67
2023/09/25 05:59:23;;;;;;;2.95;1.88;;;;;;;19.90;100.00;99926.59;5180863;27;20100;-65
2023/09/25 06:01:49;;;;;;;3.22;2.00;;;;;;;19.78;100.00;99884.56;5181342;27;20043;-66
2023/09/25 06:04:16;;;;;;;5.15;2.78;;;;;;;19.89;100.00;99963.16;5181014;27;20104;-64
2023/09/25 06:06:42;;;;;;;2.97;1.98;;;;;;;20.00;100.00;99936.06;5181332;27;20042;-61
2023/09/25 06:09:09;;;;;;;1.90;1.80;;;;;;;20.09;100.00;99983.72;5180898;27;20050;-59
2023/09/25 06:11:39;;;;;;;2.20;1.88;;;;;;;20.60;100.00;99987.66;5180805;27;20426;-61
2023/09/25 06:14:05;;;;;;;1.92;1.75;;;;;;;20.10;100.00;100052.09;5180875;27;20046;-61
2023/09/25 06:16:31;;;;;;;3.83;2.00;;;;;;;20.54;100.00;100041.44;5181038;27;20416;-61
2023/09/25 06:18:57;;;;;;;1.95;1.83;;;;;;;20.64;100.00;100060.84;5180869;27;20050;-63
2023/09/25 06:21:23;;;;;;;4.95;1.83;;;;;;;20.97;100.00;100088.41;5180655;27;20046;-66
2023/09/25 06:23:49;;;;;;;4.35;1.80;;;;;;;21.38;100.00;100155.34;5180949;27;20093;-61
2023/09/25 06:26:15;;;;;;;5.47;1.73;;;;;;;21.79;100.00;100177.63;5180591;27;20080;-65
2023/09/25 06:28:42;;;;;;;2.70;1.70;;;;;;;21.75;100.00;100176.84;5180711;27;20312;-63
2023/09/25 06:31:09;;;;;;;2.90;1.40;;;;;;;21.70;100.00;100185.69;5180486;27;20141;-57
2023/09/25 06:33:35;;;;;;;3.80;1.95;;;;;;;22.06;100.00;100191.66;5180584;27;20133;-59
2023/09/25 06:36:02;;;;;;;2.55;1.83;;;;;;;22.22;100.00;100188.25;5180369;27;20356;-59
2023/09/25 06:38:28;;;;;;;3.28;1.65;;;;;;;22.31;100.00;100218.47;5180392;27;20050;-60
2023/09/25 06:40:53;;;;;;;4.32;1.50;;;;;;;21.81;100.00;100171.59;5179977;27;20183;-60
2023/09/25 06:43:19;;;;;;;6.82;1.67;;;;;;;22.05;100.00;100208.81;5180439;27;20405;-62
2023/09/25 06:45:45;;;;;;;2.35;1.42;;;;;;;22.17;100.00;100218.66;5179939;27;20046;-62
2023/09/25 06:48:12;;;;;;;4.18;1.50;;;;;;;22.57;100.00;100224.53;5180009;27;20145;-62
2023/09/25 06:50:38;;;;;;;3.22;1.77;;;;;;;23.04;100.00;100244.22;5180545;27;20082;-66
2023/09/25 06:53:04;;;;;;;7.10;1.50;;;;;;;22.62;100.00;100244.38;5180083;27;20403;-63
2023/09/25 06:55:30;;;;;;;1.60;1.23;;;;;;;22.78;100.00;100233.38;5179893;27;20065;-67
2023/09/25 06:57:56;;;;;;;3.92;1.52;;;;;;;23.14;100.00;100258.03;5180120;27;20331;-64
2023/09/25 07:00:23;;;;;;;3.58;1.38;;;;;;;22.95;100.00;100267.88;5180320;27;20064;-60
2023/09/25 07:02:50;;;;;;;2.70;1.48;;;;;;;23.41;100.00;100277.56;5180043;27;20367;-63
2023/09/25 07:05:17;;;;;;;2.90;1.40;;;;;;;22.71;100.00;100260.66;5179943;27;20109;-63
2023/09/25 07:07:43;;;;;;;2.83;1.60;;;;;;;23.64;100.00;100273.16;5179697;27;20137;-63
2023/09/25 07:10:10;;;;;;;4.93;1.20;;;;;;;23.64;100.00;100292.75;5180128;27;20065;-60
2023/09/25 07:12:36;;;;;;;2.40;1.30;;;;;;;22.38;100.00;100267.88;5179844;27;20049;-61
2023/09/25 07:15:02;;;;;;;3.70;1.60;;;;;;;23.11;100.00;100280.44;5180189;27;20060;-64
2023/09/25 07:17:29;;;;;;;1.95;1.08;;;;;;;23.60;100.00;100306.03;5179629;27;20061;-61
2023/09/25 07:19:55;;;;;;;3.50;1.65;;;;;;;23.21;100.00;100308.25;5179497;27;20146;-60
2023/09/25 07:22:24;;;;;;;1.67;1.13;;;;;;;22.89;100.00;100302.31;5179871;27;20433;-59
2023/09/25 07:24:50;;;;;;;5.03;1.63;;;;;;;23.16;100.00;100299.56;5179558;27;20065;-59
2023/09/25 07:27:17;;;;;;;1.35;1.20;;;;;;;23.58;100.00;100308.47;5179049;27;20498;-58
2023/09/25 07:29:43;;;;;;;3.70;1.50;;;;;;;23.52;100.00;100302.56;5179549;27;20150;-61
2023/09/25 07:32:09;;;;;;;4.03;1.55;;;;;;;22.86;100.00;100300.34;5179856;27;20042;-58
2023/09/25 07:34:35;;;;;;;3.28;1.42;;;;;;;23.45;100.00;100299.88;5179440;27;20046;-58
2023/09/25 07:37:04;;;;;;;2.63;1.08;;;;;;;23.11;100.00;100308.41;5179634;27;20042;-57
2023/09/25 07:39:31;;;;;;;4.32;1.30;;;;;;;23.92;100.00;100316.69;5179054;27;20416;-60
2023/09/25 07:41:57;;;;;;;1.00;0.98;;;;;;;23.31;100.00;100319.72;5179687;27;20042;-59
2023/09/25 07:44:26;;;;;;;1.90;1.30;;;;;;;24.40;100.00;100316.19;5179284;27;20081;-59
2023/09/25 07:46:52;;;;;;;1.33;1.23;;;;;;;24.05;100.00;100334.44;5179403;27;20054;-61
2023/09/25 07:49:19;;;;;;;3.55;1.00;;;;;;;23.91;100.00;100338.28;5179107;27;20355;-63
2023/09/25 07:51:45;;;;;;;3.25;1.10;;;;;;;24.48;100.00;100332.84;5179179;27;20524;-62
2023/09/25 07:54:11;;;;;;;3.55;1.23;;;;;;;24.66;100.00;100341.69;5179314;27;20404;-62
2023/09/25 07:56:37;;;;;;;3.53;1.25;;;;;;;24.43;100.00;100345.38;5178891;27;20042;-59
2023/09/25 07:59:03;;;;;;;4.10;1.70;;;;;;;24.72;100.00;100345.53;5179199;27;20368;-60
2023/09/25 08:01:30;;;;;;;2.70;1.75;;;;;;;24.96;100.00;100353.84;5178906;27;20046;-57
2023/09/25 08:03:56;;;;;;;2.42;1.30;;;;;;;24.82;100.00;100358.53;5178981;27;20399;-65
2023/09/25 08:06:24;;;;;;;3.20;1.40;;;;;;;23.84;100.00;100332.03;5178860;27;20109;-59
2023/09/25 08:08:50;;;;;;;2.83;1.58;;;;;;;24.56;100.00;100348.31;5179100;27;20146;-62
2023/09/25 08:11:17;;;;;;;3.85;1.48;;;;;;;24.69;100.00;100356.84;5178703;27;20054;-60
2023/09/25 08:13:44;;;;;;;3.45;1.60;;;;;;;23.93;100.00;100358.28;5178864;27;20372;-62
2023/09/25 08:16:10;;;;;;;4.03;1.50;;;;;;;24.23;100.00;100330.53;5178825;27;20050;-58
2023/09/25 08:18:36;;;;;;;2.10;1.60;;;;;;;23.44;100.00;100320.69;5178641;27;20061;-55
2023/09/25 08:21:04;;;;;;;2.10;1.35;;;;;;;25.05;100.00;100356.84;5178624;27;20132;-62
2023/09/25 08:23:30;;;;;;;3.67;1.13;;;;;;;24.36;100.00;100348.28;5178475;27;20338;-62
2023/09/25 08:25:56;;;;;;;3.78;1.45;;;;;;;24.61;100.00;100348.56;5178860;27;20078;-63
2023/09/25 08:28:22;;;;;;;7.70;1.15;;;;;;;23.68;100.00;100357.91;5178676;27;20148;-63
2023/09/25 08:30:49;;;;;;;2.47;1.77;;;;;;;23.56;100.00;100334.09;5178916;27;20048;-61
2023/09/25 08:33:15;;;;;;;2.63;1.40;;;;;;;24.07;100.00;100343.22;5178524;27;20111;-63
2023/09/25 08:35:42;;;;;;;4.47;1.38;;;;;;;24.45;100.00;100345.69;5178634;27;20046;-61
2023/09/25 08:38:08;;;;;;;3.78;1.58;;;;;;;24.37;100.00;100344.25;5178372;27;20129;-64
2023/09/25 08:40:38;;;;;;;5.70;1.88;;;;;;;24.26;100.00;100350.06;5182032;27;20320;-62
2023/09/25 08:43:05;;;;;;;4.20;1.30;;;;;;;24.53;100.00;100358.38;5182068;27;20140;-61
2023/09/25 08:45:32;;;;;;;2.72;1.40;;;;;;;25.04;100.00;100372.09;5182368;27;20097;-63
2023/09/25 08:47:58;;;;;;;4.57;1.33;;;;;;;25.24;100.00;100372.09;5182348;27;20046;-61
2023/09/25 08:50:25;;;;;;;2.45;1.23;;;;;;;25.29;100.00;100377.16;5182143;27;20111;-62
2023/09/25 08:52:51;;;;;;;2.25;1.20;;;;;;;25.85;100.00;100379.06;5182342;27;20050;-62
2023/09/25 08:55:17;;;;;;;1.75;1.20;;;;;;;24.83;100.00;100365.75;5182194;27;20384;-62
2023/09/25 08:57:43;;;;;;;2.08;1.17;;;;;;;24.79;100.00;100359.44;5182372;27;20400;-59
2023/09/25 09:00:14;;;;;;;3.75;1.45;;;;;;;24.95;100.00;100375.50;5181768;27;20357;-63
2023/09/25 09:02:40;;;;;;;1.30;1.00;;;;;;;25.28;100.00;100373.56;5182246;27;20065;-65
2023/09/25 09:05:09;;;;;;;1.65;0.93;;;;;;;25.44;96.61;100372.03;5181891;27;20332;-64
2023/09/25 09:07:35;;;;;;;1.65;0.93;;;;;;;24.97;100.00;100367.44;5182174;27;20105;-63
2023/09/25 09:10:00;;;;;;;2.15;1.20;;;;;;;24.37;100.00;100347.06;5181643;27;20062;-63
2023/09/25 09:12:26;;;;;;;2.88;1.42;;;;;;;24.34;100.00;100362.72;5181971;27;20046;-63
2023/09/25 09:14:52;;;;;;;2.17;1.25;;;;;;;24.82;100.00;100364.16;5182056;27;20056;-61
2023/09/25 09:17:18;;;;;;;1.90;1.30;;;;;;;24.85;100.00;100368.88;5181985;27;20129;-62
2023/09/25 09:19:52;;;;;;;1.20;1.00;;;;;;;24.45;100.00;100375.75;5181788;27;20404;-60
2023/09/25 09:22:21;;;;;;;2.45;0.80;;;;;;;22.95;100.00;100364.97;5181855;27;20137;-63
2023/09/25 09:24:49;;;;;;;3.88;1.30;;;;;;;22.57;100.00;100339.88;5181712;27;20054;-63
2023/09/25 09:27:20;;;;;;;1.60;1.00;;;;;;;22.86;100.00;100326.34;5181438;27;20051;-61
2023/09/25 09:29:47;;;;;;;2.15;1.00;;;;;;;23.66;100.00;100344.31;5181880;27;20355;-61
2023/09/25 09:32:14;;;;;;;1.00;0.85;;;;;;;23.43;100.00;100347.88;5181547;27;20137;-61
2023/09/25 09:34:40;;;;;;;2.35;0.70;;;;;;;23.69;100.00;100365.91;5181556;27;20141;-62
2023/09/25 09:37:08;;;;;;;1.67;0.80;;;;;;;23.95;100.00;100369.03;5181663;27;20141;-59
2023/09/25 09:39:35;;;;;;;1.65;0.88;;;;;;;22.29;100.00;100352.19;5181381;27;20114;-60
2023/09/25 09:42:05;;;;;;;1.98;1.00;;;;;;;23.61;100.00;100353.19;5181633;27;20187;-62
2023/09/25 09:44:31;;;;;;;1.73;1.13;;;;;;;23.48;100.00;100350.19;5181379;27;20050;-65
2023/09/25 09:47:01;;;;;;;1.10;0.88;;;;;;;23.74;100.00;100364.59;5181375;27;20407;-58
2023/09/25 09:49:28;;;;;;;7.88;2.38;;;;;;;24.33;100.00;100366.75;5180810;27;20099;-64
2023/09/25 09:51:57;;;;;;;2.38;1.42;;;;;;;23.82;100.00;100366.06;5179505;27;20046;-60
2023/09/25 09:54:23;;;;;;;2.03;0.90;;;;;;;23.87;100.00;100371.19;5180444;27;20334;-60
2023/09/25 09:56:50;;;;;;;1.35;1.15;;;;;;;24.10;100.00;100381.56;5172215;27;20084;-64
2023/09/25 09:59:17;;;;;;;2.90;1.15;;;;;;;23.98;100.00;100370.19;5171641;27;20106;-61
2023/09/25 10:01:45;;;;;;;1.25;1.05;;;;;;;24.63;100.00;100379.00;5159897;27;20047;-61
2023/09/25 10:04:12;;;;;;;0.88;0.88;;;;;;;24.42;100.00;100383.81;5158090;27;20133;-62
2023/09/25 10:06:47;;;;;;;1.67;1.17;;;;;;;24.76;100.00;100376.31;5160013;27;20480;-64
2023/09/25 10:09:13;;;;;;;2.97;1.23;;;;;;;24.76;100.00;100385.53;5160067;27;20361;-63
2023/09/25 10:11:41;;;;;;;1.83;1.30;;;;;;;24.23;100.00;100367.75;5176062;27;20042;-59
2023/09/25 10:14:08;;;;;;;1.90;0.93;;;;;;;23.15;100.00;100370.69;5181015;27;20205;-60
2023/09/25 10:17:07;;;;;;;3.35;1.13;;;;;;;23.74;100.00;100373.00;5180778;27;20434;-58
2023/09/25 10:19:47;;;;;;;1.17;1.08;;;;;;;24.84;100.00;100372.16;5075967;28;20048;-61
2023/09/25 10:22:18;;;;;;;3.40;1.10;;;;;;;24.19;100.00;100378.19;5076252;28;20048;-59
2023/09/25 10:24:47;;;;;;;2.33;1.20;;;;;;;23.96;100.00;100373.44;5076278;28;20104;-58
2023/09/25 10:27:15;;;;;;;1.10;1.00;;;;;;;23.24;100.00;100373.75;5076106;28;20056;-59
2023/09/25 10:30:01;;;;;;;2.05;1.30;;;;;;;23.06;100.00;100364.81;5076269;28;20144;-59
2023/09/25 10:32:31;;;;;;;1.08;0.80;;;;;;;23.57;100.00;100368.47;5076100;28;20049;-56
2023/09/25 10:34:57;;;;;;;2.67;1.40;;;;;;;23.90;98.02;100370.31;5075691;28;20128;-59
2023/09/25 10:37:23;;;;;;;0.90;0.90;;;;;;;23.95;96.10;100378.22;5075897;28;20462;-61
2023/09/25 10:39:56;;;;;;;1.15;0.80;;;;;;;24.41;96.50;100382.22;5075897;28;20059;-61
2023/09/25 10:42:22;;;;;;;2.00;1.10;;;;;;;23.91;100.00;100368.31;5076028;28;20059;-55
2023/09/25 10:44:49;;;;;;;3.38;1.40;;;;;;;23.39;100.00;100351.94;5075943;28;20056;-54
2023/09/25 10:47:15;;;;;;;3.72;1.40;;;;;;;23.66;100.00;100360.31;5076033;28;20410;-63
2023/09/25 10:49:41;;;;;;;1.98;1.38;;;;;;;23.88;99.49;100367.16;5098990;27;20058;-61
2023/09/25 10:52:08;;;;;;;4.13;1.55;;;;;;;23.64;100.00;100355.13;5180349;27;20089;-62
2023/09/25 10:54:34;;;;;;;5.28;0.80;;;;;;;23.89;98.21;100357.56;5180461;27;20422;-59
2023/09/25 10:57:00;;;;;;;2.60;0.98;;;;;;;23.75;100.00;100349.38;5180068;27;20148;-61
2023/09/25 10:59:26;;;;;;;4.70;0.77;;;;;;;23.33;98.23;100360.03;5180211;27;20056;-60
2023/09/25 11:01:53;;;;;;;1.30;0.98;;;;;;;23.14;92.16;100363.53;5178802;27;20137;-54
2023/09/25 11:04:19;;;;;;;1.55;1.30;;;;;;;22.90;99.94;100359.84;5180418;27;20046;-58
2023/09/25 11:06:45;;;;;;;5.68;1.10;;;;;;;22.73;94.45;100362.44;5179810;27;20145;-57
2023/09/25 11:09:15;;;;;;;2.80;1.05;;;;;;;22.25;100.00;100357.00;5180191;27;20133;-62
2023/09/25 11:11:42;;;;;;;2.00;0.90;;;;;;;21.84;100.00;100349.44;5180004;27;20089;-58
2023/09/25 11:14:08;;;;;;;2.10;1.30;;;;;;;21.66;100.00;100340.41;5179736;27;20110;-60